sensor_id;sensor_type;location;lat;lon;timestamp;P1;durP1;ratioP1;P2;durP2;ratioP2
7045;SDS011;3564;53.326;10.356;2023-08-06T00:00:18;5.57;;;4.17;;
7045;SDS011;3564;53.326;10.356;2023-08-06T00:02:44;4.07;;;3.23;;
7045;SDS011;3564;53.326;10.356;2023-08-06T00:05:12;3.67;;;3.00;;
7045;SDS011;3564;53.326;10.356;2023-08-06T00:07:38;4.97;;;2.93;;
7045;SDS011;3564;53.326;10.356;2023-08-06T00:10:04;5.87;;;3.30;;
7045;SDS011;3564;53.326;10.356;2023-08-06T00:12:29;3.73;;;3.10;;
7045;SDS011;3564;53.326;10.356;2023-08-06T00:14:55;3.97;;;2.93;;
7045;SDS011;3564;53.326;10.356;2023-08-06T00:17:21;2.70;;;2.50;;
7045;SDS011;3564;53.326;10.356;2023-08-06T00:19:46;3.13;;;2.70;;
7045;SDS011;3564;53.326;10.356;2023-08-06T00:22:12;2.70;;;2.43;;
7045;SDS011;3564;53.326;10.356;2023-08-06T00:24:37;3.00;;;2.70;;
7045;SDS011;3564;53.326;10.356;2023-08-06T00:27:03;5.00;;;2.87;;
7045;SDS011;3564;53.326;10.356;2023-08-06T00:29:32;2.70;;;2.50;;
7045;SDS011;3564;53.326;10.356;2023-08-06T00:31:57;3.67;;;2.67;;
7045;SDS011;3564;53.326;10.356;2023-08-06T00:34:23;5.43;;;2.70;;
7045;SDS011;3564;53.326;10.356;2023-08-06T00:36:48;4.77;;;2.80;;
7045;SDS011;3564;53.326;10.356;2023-08-06T00:39:18;5.20;;;2.87;;
7045;SDS011;3564;53.326;10.356;2023-08-06T00:41:50;3.37;;;2.30;;
7045;SDS011;3564;53.326;10.356;2023-08-06T00:44:23;3.70;;;2.63;;
7045;SDS011;3564;53.326;10.356;2023-08-06T00:46:49;3.37;;;2.50;;
7045;SDS011;3564;53.326;10.356;2023-08-06T00:49:14;4.50;;;3.00;;
7045;SDS011;3564;53.326;10.356;2023-08-06T00:51:40;2.63;;;2.30;;
7045;SDS011;3564;53.326;10.356;2023-08-06T00:54:10;3.17;;;2.70;;
7045;SDS011;3564;53.326;10.356;2023-08-06T00:56:36;4.57;;;2.90;;
7045;SDS011;3564;53.326;10.356;2023-08-06T00:59:03;2.93;;;2.63;;
7045;SDS011;3564;53.326;10.356;2023-08-06T01:01:32;2.80;;;2.50;;
7045;SDS011;3564;53.326;10.356;2023-08-06T01:03:58;4.60;;;2.77;;
7045;SDS011;3564;53.326;10.356;2023-08-06T01:06:29;2.73;;;2.53;;
7045;SDS011;3564;53.326;10.356;2023-08-06T01:09:06;3.17;;;2.83;;
7045;SDS011;3564;53.326;10.356;2023-08-06T01:14:53;3.23;;;2.80;;
7045;SDS011;3564;53.326;10.356;2023-08-06T01:17:25;5.47;;;3.37;;
7045;SDS011;3564;53.326;10.356;2023-08-06T01:19:52;4.03;;;2.70;;
7045;SDS011;3564;53.326;10.356;2023-08-06T01:22:18;3.43;;;2.77;;
7045;SDS011;3564;53.326;10.356;2023-08-06T01:24:48;3.07;;;2.77;;
7045;SDS011;3564;53.326;10.356;2023-08-06T01:27:23;4.63;;;2.77;;
7045;SDS011;3564;53.326;10.356;2023-08-06T01:30:02;3.07;;;2.73;;
7045;SDS011;3564;53.326;10.356;2023-08-06T01:32:34;6.20;;;2.93;;
7045;SDS011;3564;53.326;10.356;2023-08-06T01:35:00;2.87;;;2.60;;
7045;SDS011;3564;53.326;10.356;2023-08-06T01:37:30;3.70;;;3.17;;
7045;SDS011;3564;53.326;10.356;2023-08-06T01:39:56;2.73;;;2.53;;
7045;SDS011;3564;53.326;10.356;2023-08-06T01:42:22;2.93;;;2.67;;
7045;SDS011;3564;53.326;10.356;2023-08-06T01:44:50;3.80;;;3.33;;
7045;SDS011;3564;53.326;10.356;2023-08-06T01:47:16;3.53;;;3.07;;
7045;SDS011;3564;53.326;10.356;2023-08-06T01:49:41;3.10;;;2.80;;
7045;SDS011;3564;53.326;10.356;2023-08-06T01:52:07;6.13;;;3.20;;
7045;SDS011;3564;53.326;10.356;2023-08-06T01:54:32;3.13;;;2.93;;
7045;SDS011;3564;53.326;10.356;2023-08-06T01:56:58;3.10;;;2.80;;
7045;SDS011;3564;53.326;10.356;2023-08-06T01:59:24;5.37;;;3.00;;
7045;SDS011;3564;53.326;10.356;2023-08-06T02:01:49;3.40;;;3.10;;
7045;SDS011;3564;53.326;10.356;2023-08-06T02:04:15;3.50;;;3.20;;
7045;SDS011;3564;53.326;10.356;2023-08-06T02:06:40;3.70;;;3.13;;
7045;SDS011;3564;53.326;10.356;2023-08-06T02:09:06;6.63;;;3.20;;
7045;SDS011;3564;53.326;10.356;2023-08-06T02:11:31;4.70;;;3.20;;
7045;SDS011;3564;53.326;10.356;2023-08-06T02:13:57;4.20;;;3.57;;
7045;SDS011;3564;53.326;10.356;2023-08-06T02:16:25;5.53;;;3.53;;
7045;SDS011;3564;53.326;10.356;2023-08-06T02:18:51;4.33;;;3.73;;
7045;SDS011;3564;53.326;10.356;2023-08-06T02:21:16;4.87;;;3.90;;
7045;SDS011;3564;53.326;10.356;2023-08-06T02:23:42;4.57;;;3.60;;
7045;SDS011;3564;53.326;10.356;2023-08-06T02:26:07;5.17;;;3.80;;
7045;SDS011;3564;53.326;10.356;2023-08-06T02:28:33;3.93;;;3.63;;
7045;SDS011;3564;53.326;10.356;2023-08-06T02:30:59;3.83;;;3.43;;
7045;SDS011;3564;53.326;10.356;2023-08-06T02:33:24;3.90;;;3.50;;
7045;SDS011;3564;53.326;10.356;2023-08-06T02:35:50;4.33;;;3.80;;
7045;SDS011;3564;53.326;10.356;2023-08-06T02:38:16;4.23;;;3.83;;
7045;SDS011;3564;53.326;10.356;2023-08-06T02:40:45;4.60;;;3.70;;
7045;SDS011;3564;53.326;10.356;2023-08-06T02:43:11;4.83;;;3.20;;
7045;SDS011;3564;53.326;10.356;2023-08-06T02:45:37;4.40;;;4.00;;
7045;SDS011;3564;53.326;10.356;2023-08-06T02:48:02;3.60;;;3.30;;
7045;SDS011;3564;53.326;10.356;2023-08-06T02:50:31;3.73;;;3.33;;
7045;SDS011;3564;53.326;10.356;2023-08-06T02:53:04;3.90;;;3.50;;
7045;SDS011;3564;53.326;10.356;2023-08-06T02:55:30;4.00;;;3.13;;
7045;SDS011;3564;53.326;10.356;2023-08-06T02:57:56;4.27;;;3.37;;
7045;SDS011;3564;53.326;10.356;2023-08-06T03:00:21;4.10;;;3.70;;
7045;SDS011;3564;53.326;10.356;2023-08-06T03:02:47;5.17;;;3.70;;
7045;SDS011;3564;53.326;10.356;2023-08-06T03:05:12;6.60;;;3.83;;
7045;SDS011;3564;53.326;10.356;2023-08-06T03:07:38;4.90;;;3.80;;
7045;SDS011;3564;53.326;10.356;2023-08-06T03:10:03;4.13;;;3.63;;
7045;SDS011;3564;53.326;10.356;2023-08-06T03:12:29;4.87;;;3.23;;
7045;SDS011;3564;53.326;10.356;2023-08-06T03:14:55;4.73;;;3.60;;
7045;SDS011;3564;53.326;10.356;2023-08-06T03:17:20;3.93;;;3.20;;
7045;SDS011;3564;53.326;10.356;2023-08-06T03:19:46;4.63;;;3.50;;
7045;SDS011;3564;53.326;10.356;2023-08-06T03:22:12;4.10;;;3.70;;
7045;SDS011;3564;53.326;10.356;2023-08-06T03:24:37;4.43;;;3.70;;
7045;SDS011;3564;53.326;10.356;2023-08-06T03:27:03;3.83;;;3.50;;
7045;SDS011;3564;53.326;10.356;2023-08-06T03:29:29;4.13;;;3.73;;
7045;SDS011;3564;53.326;10.356;2023-08-06T03:31:57;4.20;;;3.50;;
7045;SDS011;3564;53.326;10.356;2023-08-06T03:34:22;5.53;;;3.63;;
7045;SDS011;3564;53.326;10.356;2023-08-06T03:36:51;4.60;;;3.50;;
7045;SDS011;3564;53.326;10.356;2023-08-06T03:39:16;4.80;;;3.57;;
7045;SDS011;3564;53.326;10.356;2023-08-06T03:41:42;4.37;;;3.67;;
7045;SDS011;3564;53.326;10.356;2023-08-06T03:44:07;3.73;;;3.33;;
7045;SDS011;3564;53.326;10.356;2023-08-06T03:46:36;4.67;;;3.37;;
7045;SDS011;3564;53.326;10.356;2023-08-06T03:49:01;3.87;;;3.57;;
7045;SDS011;3564;53.326;10.356;2023-08-06T03:51:27;4.07;;;3.33;;
7045;SDS011;3564;53.326;10.356;2023-08-06T03:53:56;4.53;;;3.40;;
7045;SDS011;3564;53.326;10.356;2023-08-06T03:56:21;5.90;;;3.50;;
7045;SDS011;3564;53.326;10.356;2023-08-06T03:58:47;5.70;;;3.47;;
7045;SDS011;3564;53.326;10.356;2023-08-06T04:01:12;6.20;;;3.47;;
7045;SDS011;3564;53.326;10.356;2023-08-06T04:03:38;4.13;;;3.70;;
7045;SDS011;3564;53.326;10.356;2023-08-06T04:06:07;5.57;;;3.63;;
7045;SDS011;3564;53.326;10.356;2023-08-06T04:08:32;8.03;;;4.10;;
7045;SDS011;3564;53.326;10.356;2023-08-06T04:10:58;4.70;;;3.83;;
7045;SDS011;3564;53.326;10.356;2023-08-06T04:13:23;5.27;;;3.80;;
7045;SDS011;3564;53.326;10.356;2023-08-06T04:15:49;4.73;;;3.53;;
7045;SDS011;3564;53.326;10.356;2023-08-06T04:18:15;4.03;;;3.53;;
7045;SDS011;3564;53.326;10.356;2023-08-06T04:20:42;3.83;;;3.50;;
7045;SDS011;3564;53.326;10.356;2023-08-06T04:23:09;5.83;;;3.70;;
7045;SDS011;3564;53.326;10.356;2023-08-06T04:25:34;6.20;;;4.10;;
7045;SDS011;3564;53.326;10.356;2023-08-06T04:28:00;5.53;;;3.87;;
7045;SDS011;3564;53.326;10.356;2023-08-06T04:30:25;7.90;;;3.80;;
7045;SDS011;3564;53.326;10.356;2023-08-06T04:32:51;6.97;;;3.70;;
7045;SDS011;3564;53.326;10.356;2023-08-06T04:35:19;5.60;;;3.63;;
7045;SDS011;3564;53.326;10.356;2023-08-06T04:37:45;5.37;;;3.70;;
7045;SDS011;3564;53.326;10.356;2023-08-06T04:40:10;4.73;;;4.00;;
7045;SDS011;3564;53.326;10.356;2023-08-06T04:42:36;4.80;;;3.70;;
7045;SDS011;3564;53.326;10.356;2023-08-06T04:45:02;5.73;;;3.70;;
7045;SDS011;3564;53.326;10.356;2023-08-06T04:47:27;4.50;;;3.50;;
7045;SDS011;3564;53.326;10.356;2023-08-06T04:49:53;6.70;;;3.83;;
7045;SDS011;3564;53.326;10.356;2023-08-06T04:52:19;5.50;;;4.40;;
7045;SDS011;3564;53.326;10.356;2023-08-06T04:54:44;8.07;;;4.00;;
7045;SDS011;3564;53.326;10.356;2023-08-06T04:57:10;6.33;;;4.10;;
7045;SDS011;3564;53.326;10.356;2023-08-06T04:59:36;5.47;;;4.37;;
7045;SDS011;3564;53.326;10.356;2023-08-06T05:02:01;5.17;;;4.07;;
7045;SDS011;3564;53.326;10.356;2023-08-06T05:04:30;5.67;;;3.80;;
7045;SDS011;3564;53.326;10.356;2023-08-06T05:06:59;8.47;;;4.33;;
7045;SDS011;3564;53.326;10.356;2023-08-06T05:09:25;6.97;;;4.50;;
7045;SDS011;3564;53.326;10.356;2023-08-06T05:11:51;6.50;;;3.63;;
7045;SDS011;3564;53.326;10.356;2023-08-06T05:14:16;7.00;;;4.23;;
7045;SDS011;3564;53.326;10.356;2023-08-06T05:16:42;6.03;;;4.00;;
7045;SDS011;3564;53.326;10.356;2023-08-06T05:19:07;8.10;;;4.03;;
7045;SDS011;3564;53.326;10.356;2023-08-06T05:21:33;6.53;;;4.20;;
7045;SDS011;3564;53.326;10.356;2023-08-06T05:23:58;7.27;;;4.27;;
7045;SDS011;3564;53.326;10.356;2023-08-06T05:26:24;6.77;;;4.23;;
7045;SDS011;3564;53.326;10.356;2023-08-06T05:28:49;4.90;;;4.40;;
7045;SDS011;3564;53.326;10.356;2023-08-06T05:31:15;7.53;;;3.70;;
7045;SDS011;3564;53.326;10.356;2023-08-06T05:33:40;7.13;;;4.50;;
7045;SDS011;3564;53.326;10.356;2023-08-06T05:36:06;4.60;;;4.10;;
7045;SDS011;3564;53.326;10.356;2023-08-06T05:38:31;7.20;;;4.60;;
7045;SDS011;3564;53.326;10.356;2023-08-06T05:40:57;8.73;;;4.27;;
7045;SDS011;3564;53.326;10.356;2023-08-06T05:43:25;6.40;;;4.40;;
7045;SDS011;3564;53.326;10.356;2023-08-06T05:45:55;9.67;;;4.60;;
7045;SDS011;3564;53.326;10.356;2023-08-06T05:48:21;7.27;;;4.80;;
7045;SDS011;3564;53.326;10.356;2023-08-06T05:50:49;5.60;;;4.27;;
7045;SDS011;3564;53.326;10.356;2023-08-06T05:53:18;6.20;;;4.47;;
7045;SDS011;3564;53.326;10.356;2023-08-06T05:55:44;6.07;;;4.57;;
7045;SDS011;3564;53.326;10.356;2023-08-06T05:58:10;8.03;;;4.53;;
7045;SDS011;3564;53.326;10.356;2023-08-06T06:00:35;6.73;;;4.57;;
7045;SDS011;3564;53.326;10.356;2023-08-06T06:03:01;7.40;;;4.23;;
7045;SDS011;3564;53.326;10.356;2023-08-06T06:05:30;7.00;;;4.33;;
7045;SDS011;3564;53.326;10.356;2023-08-06T06:08:01;8.10;;;4.87;;
7045;SDS011;3564;53.326;10.356;2023-08-06T06:10:27;8.67;;;4.80;;
7045;SDS011;3564;53.326;10.356;2023-08-06T06:12:55;8.57;;;5.10;;
7045;SDS011;3564;53.326;10.356;2023-08-06T06:15:24;6.00;;;4.43;;
7045;SDS011;3564;53.326;10.356;2023-08-06T06:17:49;6.67;;;4.17;;
7045;SDS011;3564;53.326;10.356;2023-08-06T06:20:15;6.03;;;4.67;;
7045;SDS011;3564;53.326;10.356;2023-08-06T06:22:40;6.23;;;5.17;;
7045;SDS011;3564;53.326;10.356;2023-08-06T06:25:06;6.97;;;5.07;;
7045;SDS011;3564;53.326;10.356;2023-08-06T06:27:35;6.20;;;4.33;;
7045;SDS011;3564;53.326;10.356;2023-08-06T06:30:00;5.60;;;4.63;;
7045;SDS011;3564;53.326;10.356;2023-08-06T06:32:26;8.83;;;4.80;;
7045;SDS011;3564;53.326;10.356;2023-08-06T06:34:52;7.70;;;4.70;;
7045;SDS011;3564;53.326;10.356;2023-08-06T06:37:17;7.37;;;4.77;;
7045;SDS011;3564;53.326;10.356;2023-08-06T06:39:43;7.53;;;5.00;;
7045;SDS011;3564;53.326;10.356;2023-08-06T06:42:09;6.83;;;4.77;;
7045;SDS011;3564;53.326;10.356;2023-08-06T06:44:35;6.00;;;4.73;;
7045;SDS011;3564;53.326;10.356;2023-08-06T06:47:00;6.10;;;4.60;;
7045;SDS011;3564;53.326;10.356;2023-08-06T06:49:26;8.77;;;5.07;;
7045;SDS011;3564;53.326;10.356;2023-08-06T06:51:51;8.40;;;5.63;;
7045;SDS011;3564;53.326;10.356;2023-08-06T06:54:17;6.27;;;4.60;;
7045;SDS011;3564;53.326;10.356;2023-08-06T06:56:42;7.37;;;5.00;;
7045;SDS011;3564;53.326;10.356;2023-08-06T06:59:11;6.33;;;4.67;;
7045;SDS011;3564;53.326;10.356;2023-08-06T07:01:40;6.87;;;5.27;;
7045;SDS011;3564;53.326;10.356;2023-08-06T07:04:05;9.97;;;5.00;;
7045;SDS011;3564;53.326;10.356;2023-08-06T07:06:31;7.17;;;5.13;;
7045;SDS011;3564;53.326;10.356;2023-08-06T07:08:59;5.20;;;4.47;;
7045;SDS011;3564;53.326;10.356;2023-08-06T07:11:28;5.90;;;4.70;;
7045;SDS011;3564;53.326;10.356;2023-08-06T07:13:57;6.07;;;4.87;;
7045;SDS011;3564;53.326;10.356;2023-08-06T07:16:29;7.40;;;5.27;;
7045;SDS011;3564;53.326;10.356;2023-08-06T07:18:54;7.83;;;4.83;;
7045;SDS011;3564;53.326;10.356;2023-08-06T07:21:26;7.83;;;4.60;;
7045;SDS011;3564;53.326;10.356;2023-08-06T07:23:51;10.03;;;4.90;;
7045;SDS011;3564;53.326;10.356;2023-08-06T07:26:17;7.83;;;5.17;;
7045;SDS011;3564;53.326;10.356;2023-08-06T07:28:43;8.70;;;4.63;;
7045;SDS011;3564;53.326;10.356;2023-08-06T07:31:09;6.20;;;5.17;;
7045;SDS011;3564;53.326;10.356;2023-08-06T07:33:35;6.13;;;5.10;;
7045;SDS011;3564;53.326;10.356;2023-08-06T07:36:07;7.33;;;5.10;;
7045;SDS011;3564;53.326;10.356;2023-08-06T07:38:33;5.47;;;4.87;;
7045;SDS011;3564;53.326;10.356;2023-08-06T07:41:01;8.70;;;5.37;;
7045;SDS011;3564;53.326;10.356;2023-08-06T07:43:27;6.60;;;4.90;;
7045;SDS011;3564;53.326;10.356;2023-08-06T07:45:52;5.87;;;5.33;;
7045;SDS011;3564;53.326;10.356;2023-08-06T07:48:18;8.17;;;5.70;;
7045;SDS011;3564;53.326;10.356;2023-08-06T07:50:44;6.67;;;5.40;;
7045;SDS011;3564;53.326;10.356;2023-08-06T07:53:15;7.30;;;5.40;;
7045;SDS011;3564;53.326;10.356;2023-08-06T07:55:40;7.77;;;5.87;;
7045;SDS011;3564;53.326;10.356;2023-08-06T07:58:06;7.13;;;5.43;;
7045;SDS011;3564;53.326;10.356;2023-08-06T08:00:32;8.43;;;5.70;;
7045;SDS011;3564;53.326;10.356;2023-08-06T08:02:58;7.67;;;5.30;;
7045;SDS011;3564;53.326;10.356;2023-08-06T08:05:23;8.07;;;5.10;;
7045;SDS011;3564;53.326;10.356;2023-08-06T08:07:49;9.10;;;5.67;;
7045;SDS011;3564;53.326;10.356;2023-08-06T08:10:15;8.97;;;5.27;;
7045;SDS011;3564;53.326;10.356;2023-08-06T08:12:40;8.17;;;5.63;;
7045;SDS011;3564;53.326;10.356;2023-08-06T08:15:06;7.97;;;5.77;;
7045;SDS011;3564;53.326;10.356;2023-08-06T08:17:32;7.37;;;5.70;;
7045;SDS011;3564;53.326;10.356;2023-08-06T08:19:57;10.47;;;5.80;;
7045;SDS011;3564;53.326;10.356;2023-08-06T08:22:23;8.13;;;5.30;;
7045;SDS011;3564;53.326;10.356;2023-08-06T08:24:48;10.13;;;5.80;;
7045;SDS011;3564;53.326;10.356;2023-08-06T08:27:14;10.93;;;6.57;;
7045;SDS011;3564;53.326;10.356;2023-08-06T08:29:39;6.57;;;5.33;;
7045;SDS011;3564;53.326;10.356;2023-08-06T08:32:14;7.37;;;5.50;;
7045;SDS011;3564;53.326;10.356;2023-08-06T08:34:43;6.03;;;5.30;;
7045;SDS011;3564;53.326;10.356;2023-08-06T08:37:09;9.47;;;5.73;;
7045;SDS011;3564;53.326;10.356;2023-08-06T08:39:34;9.83;;;5.97;;
7045;SDS011;3564;53.326;10.356;2023-08-06T08:42:00;10.03;;;5.97;;
7045;SDS011;3564;53.326;10.356;2023-08-06T08:44:33;8.57;;;5.57;;
7045;SDS011;3564;53.326;10.356;2023-08-06T08:47:02;7.83;;;5.67;;
7045;SDS011;3564;53.326;10.356;2023-08-06T08:49:28;11.47;;;5.83;;
7045;SDS011;3564;53.326;10.356;2023-08-06T08:51:55;8.80;;;6.23;;
7045;SDS011;3564;53.326;10.356;2023-08-06T08:54:24;6.77;;;5.47;;
7045;SDS011;3564;53.326;10.356;2023-08-06T08:56:51;9.07;;;5.97;;
7045;SDS011;3564;53.326;10.356;2023-08-06T08:59:16;9.97;;;6.03;;
7045;SDS011;3564;53.326;10.356;2023-08-06T09:01:42;8.67;;;5.83;;
7045;SDS011;3564;53.326;10.356;2023-08-06T09:04:11;8.03;;;5.90;;
7045;SDS011;3564;53.326;10.356;2023-08-06T09:06:37;10.33;;;6.20;;
7045;SDS011;3564;53.326;10.356;2023-08-06T09:09:06;9.67;;;6.40;;
7045;SDS011;3564;53.326;10.356;2023-08-06T09:11:42;6.60;;;5.83;;
7045;SDS011;3564;53.326;10.356;2023-08-06T09:14:09;8.10;;;5.97;;
7045;SDS011;3564;53.326;10.356;2023-08-06T09:16:35;10.23;;;6.33;;
7045;SDS011;3564;53.326;10.356;2023-08-06T09:19:13;9.87;;;7.90;;
7045;SDS011;3564;53.326;10.356;2023-08-06T09:21:45;11.20;;;7.30;;
7045;SDS011;3564;53.326;10.356;2023-08-06T09:24:16;10.10;;;6.83;;
7045;SDS011;3564;53.326;10.356;2023-08-06T09:26:43;12.47;;;6.90;;
7045;SDS011;3564;53.326;10.356;2023-08-06T09:29:10;10.57;;;6.20;;
7045;SDS011;3564;53.326;10.356;2023-08-06T09:34:16;10.40;;;6.83;;
7045;SDS011;3564;53.326;10.356;2023-08-06T09:36:51;9.37;;;5.97;;
7045;SDS011;3564;53.326;10.356;2023-08-06T09:39:21;13.03;;;6.27;;
7045;SDS011;3564;53.326;10.356;2023-08-06T09:41:55;9.80;;;6.53;;
7045;SDS011;3564;53.326;10.356;2023-08-06T09:44:25;8.03;;;6.30;;
7045;SDS011;3564;53.326;10.356;2023-08-06T09:46:52;7.77;;;6.40;;
7045;SDS011;3564;53.326;10.356;2023-08-06T09:49:28;10.13;;;6.73;;
7045;SDS011;3564;53.326;10.356;2023-08-06T09:52:09;9.07;;;6.17;;
7045;SDS011;3564;53.326;10.356;2023-08-06T09:54:37;9.50;;;7.10;;
7045;SDS011;3564;53.326;10.356;2023-08-06T09:57:03;9.13;;;6.40;;
7045;SDS011;3564;53.326;10.356;2023-08-06T09:59:30;10.17;;;6.30;;
7045;SDS011;3564;53.326;10.356;2023-08-06T10:01:58;7.50;;;6.33;;
7045;SDS011;3564;53.326;10.356;2023-08-06T10:04:24;11.93;;;6.30;;
7045;SDS011;3564;53.326;10.356;2023-08-06T10:06:50;10.00;;;6.40;;
7045;SDS011;3564;53.326;10.356;2023-08-06T10:09:17;8.13;;;5.90;;
7045;SDS011;3564;53.326;10.356;2023-08-06T10:11:43;8.87;;;6.63;;
7045;SDS011;3564;53.326;10.356;2023-08-06T10:14:16;10.83;;;6.43;;
7045;SDS011;3564;53.326;10.356;2023-08-06T10:17:00;8.70;;;6.20;;
7045;SDS011;3564;53.326;10.356;2023-08-06T10:19:29;9.83;;;6.30;;
7045;SDS011;3564;53.326;10.356;2023-08-06T10:22:09;8.37;;;6.23;;
7045;SDS011;3564;53.326;10.356;2023-08-06T10:24:51;7.80;;;6.37;;
7045;SDS011;3564;53.326;10.356;2023-08-06T10:29:47;11.27;;;7.10;;
7045;SDS011;3564;53.326;10.356;2023-08-06T10:32:13;10.73;;;6.90;;
7045;SDS011;3564;53.326;10.356;2023-08-06T10:34:55;6.97;;;6.27;;
7045;SDS011;3564;53.326;10.356;2023-08-06T10:37:22;7.70;;;6.13;;
7045;SDS011;3564;53.326;10.356;2023-08-06T10:39:51;8.03;;;6.67;;
7045;SDS011;3564;53.326;10.356;2023-08-06T10:42:50;7.40;;;5.97;;
7045;SDS011;3564;53.326;10.356;2023-08-06T10:45:15;7.23;;;5.90;;
7045;SDS011;3564;53.326;10.356;2023-08-06T10:47:45;7.83;;;5.70;;
7045;SDS011;3564;53.326;10.356;2023-08-06T10:50:12;7.70;;;5.43;;
7045;SDS011;3564;53.326;10.356;2023-08-06T10:52:45;7.97;;;5.83;;
7045;SDS011;3564;53.326;10.356;2023-08-06T10:55:11;6.77;;;5.33;;
7045;SDS011;3564;53.326;10.356;2023-08-06T10:57:38;5.90;;;5.20;;
7045;SDS011;3564;53.326;10.356;2023-08-06T11:00:04;5.10;;;4.60;;
7045;SDS011;3564;53.326;10.356;2023-08-06T11:02:35;5.03;;;4.40;;
7045;SDS011;3564;53.326;10.356;2023-08-06T11:05:10;5.63;;;4.30;;
7045;SDS011;3564;53.326;10.356;2023-08-06T11:07:36;6.00;;;4.63;;
7045;SDS011;3564;53.326;10.356;2023-08-06T11:10:03;5.50;;;4.40;;
7045;SDS011;3564;53.326;10.356;2023-08-06T11:12:30;5.30;;;4.77;;
7045;SDS011;3564;53.326;10.356;2023-08-06T11:14:56;4.70;;;4.13;;
7045;SDS011;3564;53.326;10.356;2023-08-06T11:17:22;5.20;;;3.83;;
7045;SDS011;3564;53.326;10.356;2023-08-06T11:19:48;5.90;;;4.40;;
7045;SDS011;3564;53.326;10.356;2023-08-06T11:22:14;4.67;;;4.13;;
7045;SDS011;3564;53.326;10.356;2023-08-06T11:24:40;4.97;;;4.07;;
7045;SDS011;3564;53.326;10.356;2023-08-06T11:27:12;4.53;;;4.00;;
7045;SDS011;3564;53.326;10.356;2023-08-06T11:29:39;4.30;;;3.90;;
7045;SDS011;3564;53.326;10.356;2023-08-06T11:32:06;4.63;;;4.13;;
7045;SDS011;3564;53.326;10.356;2023-08-06T11:34:32;5.97;;;4.33;;
7045;SDS011;3564;53.326;10.356;2023-08-06T11:36:58;6.63;;;4.80;;
7045;SDS011;3564;53.326;10.356;2023-08-06T11:39:26;4.60;;;4.13;;
7045;SDS011;3564;53.326;10.356;2023-08-06T11:41:52;4.90;;;4.40;;
7045;SDS011;3564;53.326;10.356;2023-08-06T11:44:19;5.20;;;4.43;;
7045;SDS011;3564;53.326;10.356;2023-08-06T11:46:57;5.57;;;4.00;;
7045;SDS011;3564;53.326;10.356;2023-08-06T11:52:18;4.43;;;3.83;;
7045;SDS011;3564;53.326;10.356;2023-08-06T11:55:01;4.40;;;3.97;;
7045;SDS011;3564;53.326;10.356;2023-08-06T11:57:32;4.20;;;3.80;;
7045;SDS011;3564;53.326;10.356;2023-08-06T12:00:03;5.10;;;4.17;;
7045;SDS011;3564;53.326;10.356;2023-08-06T12:02:33;4.10;;;3.80;;
7045;SDS011;3564;53.326;10.356;2023-08-06T12:05:01;3.90;;;3.57;;
7045;SDS011;3564;53.326;10.356;2023-08-06T12:07:37;3.63;;;3.33;;
7045;SDS011;3564;53.326;10.356;2023-08-06T12:10:13;3.83;;;3.37;;
7045;SDS011;3564;53.326;10.356;2023-08-06T12:12:39;4.20;;;3.50;;
7045;SDS011;3564;53.326;10.356;2023-08-06T12:15:05;3.90;;;3.50;;
7045;SDS011;3564;53.326;10.356;2023-08-06T12:17:32;4.73;;;3.27;;
7045;SDS011;3564;53.326;10.356;2023-08-06T12:19:58;4.60;;;4.20;;
7045;SDS011;3564;53.326;10.356;2023-08-06T12:22:24;4.63;;;4.23;;
7045;SDS011;3564;53.326;10.356;2023-08-06T12:24:50;5.27;;;4.67;;
7045;SDS011;3564;53.326;10.356;2023-08-06T12:27:15;5.30;;;4.57;;
7045;SDS011;3564;53.326;10.356;2023-08-06T12:29:45;6.27;;;4.10;;
7045;SDS011;3564;53.326;10.356;2023-08-06T12:32:13;5.10;;;4.60;;
7045;SDS011;3564;53.326;10.356;2023-08-06T12:34:39;7.17;;;5.87;;
7045;SDS011;3564;53.326;10.356;2023-08-06T12:37:09;7.40;;;5.53;;
7045;SDS011;3564;53.326;10.356;2023-08-06T12:39:35;7.67;;;5.40;;
7045;SDS011;3564;53.326;10.356;2023-08-06T12:42:02;5.63;;;5.13;;
7045;SDS011;3564;53.326;10.356;2023-08-06T12:44:28;5.87;;;5.30;;
7045;SDS011;3564;53.326;10.356;2023-08-06T12:46:54;5.50;;;4.70;;
7045;SDS011;3564;53.326;10.356;2023-08-06T12:49:19;5.17;;;4.67;;
7045;SDS011;3564;53.326;10.356;2023-08-06T12:51:49;5.33;;;4.70;;
7045;SDS011;3564;53.326;10.356;2023-08-06T12:54:16;5.27;;;4.77;;
7045;SDS011;3564;53.326;10.356;2023-08-06T12:56:42;6.93;;;4.70;;
7045;SDS011;3564;53.326;10.356;2023-08-06T12:59:08;4.97;;;4.47;;
7045;SDS011;3564;53.326;10.356;2023-08-06T13:01:34;6.63;;;4.67;;
7045;SDS011;3564;53.326;10.356;2023-08-06T13:03:59;5.70;;;5.07;;
7045;SDS011;3564;53.326;10.356;2023-08-06T13:06:28;5.20;;;4.70;;
7045;SDS011;3564;53.326;10.356;2023-08-06T13:08:53;4.97;;;4.50;;
7045;SDS011;3564;53.326;10.356;2023-08-06T13:11:25;5.00;;;4.50;;
7045;SDS011;3564;53.326;10.356;2023-08-06T13:13:51;5.37;;;4.87;;
7045;SDS011;3564;53.326;10.356;2023-08-06T13:16:16;5.60;;;4.97;;
7045;SDS011;3564;53.326;10.356;2023-08-06T13:18:45;6.40;;;5.47;;
7045;SDS011;3564;53.326;10.356;2023-08-06T13:21:10;7.17;;;4.80;;
7045;SDS011;3564;53.326;10.356;2023-08-06T13:23:36;5.53;;;5.03;;
7045;SDS011;3564;53.326;10.356;2023-08-06T13:26:01;5.77;;;4.93;;
7045;SDS011;3564;53.326;10.356;2023-08-06T13:28:27;6.67;;;5.10;;
7045;SDS011;3564;53.326;10.356;2023-08-06T13:30:53;8.03;;;5.20;;
7045;SDS011;3564;53.326;10.356;2023-08-06T13:33:18;7.03;;;5.50;;
7045;SDS011;3564;53.326;10.356;2023-08-06T13:35:44;6.57;;;4.80;;
7045;SDS011;3564;53.326;10.356;2023-08-06T13:38:09;8.17;;;5.63;;
7045;SDS011;3564;53.326;10.356;2023-08-06T13:40:35;6.17;;;4.97;;
7045;SDS011;3564;53.326;10.356;2023-08-06T13:43:01;8.00;;;4.90;;
7045;SDS011;3564;53.326;10.356;2023-08-06T13:45:26;6.63;;;4.80;;
7045;SDS011;3564;53.326;10.356;2023-08-06T13:47:52;5.57;;;5.07;;
7045;SDS011;3564;53.326;10.356;2023-08-06T13:50:18;6.80;;;5.53;;
7045;SDS011;3564;53.326;10.356;2023-08-06T13:52:47;8.00;;;5.70;;
7045;SDS011;3564;53.326;10.356;2023-08-06T13:55:13;5.57;;;4.83;;
7045;SDS011;3564;53.326;10.356;2023-08-06T13:57:39;7.50;;;5.23;;
7045;SDS011;3564;53.326;10.356;2023-08-06T14:00:04;8.63;;;5.90;;
7045;SDS011;3564;53.326;10.356;2023-08-06T14:02:30;6.50;;;5.27;;
7045;SDS011;3564;53.326;10.356;2023-08-06T14:04:56;7.77;;;5.67;;
7045;SDS011;3564;53.326;10.356;2023-08-06T14:07:22;10.10;;;5.77;;
7045;SDS011;3564;53.326;10.356;2023-08-06T14:09:47;7.97;;;6.40;;
7045;SDS011;3564;53.326;10.356;2023-08-06T14:12:14;9.17;;;5.30;;
7045;SDS011;3564;53.326;10.356;2023-08-06T14:14:43;7.40;;;5.23;;
7045;SDS011;3564;53.326;10.356;2023-08-06T14:17:08;6.50;;;5.90;;
7045;SDS011;3564;53.326;10.356;2023-08-06T14:19:34;6.07;;;4.83;;
7045;SDS011;3564;53.326;10.356;2023-08-06T14:21:59;7.00;;;5.10;;
7045;SDS011;3564;53.326;10.356;2023-08-06T14:24:25;7.13;;;5.37;;
7045;SDS011;3564;53.326;10.356;2023-08-06T14:26:50;7.70;;;6.20;;
7045;SDS011;3564;53.326;10.356;2023-08-06T14:29:16;7.07;;;5.77;;
7045;SDS011;3564;53.326;10.356;2023-08-06T14:31:45;6.57;;;4.90;;
7045;SDS011;3564;53.326;10.356;2023-08-06T14:34:10;7.53;;;4.87;;
7045;SDS011;3564;53.326;10.356;2023-08-06T14:36:39;6.17;;;5.00;;
7045;SDS011;3564;53.326;10.356;2023-08-06T14:39:08;5.03;;;4.63;;
7045;SDS011;3564;53.326;10.356;2023-08-06T14:41:33;6.30;;;5.07;;
7045;SDS011;3564;53.326;10.356;2023-08-06T14:43:59;5.13;;;4.53;;
7045;SDS011;3564;53.326;10.356;2023-08-06T14:46:25;5.97;;;4.43;;
7045;SDS011;3564;53.326;10.356;2023-08-06T14:48:50;4.77;;;4.37;;
7045;SDS011;3564;53.326;10.356;2023-08-06T14:51:16;5.47;;;4.40;;
7045;SDS011;3564;53.326;10.356;2023-08-06T14:53:44;6.43;;;4.40;;
7045;SDS011;3564;53.326;10.356;2023-08-06T14:56:09;5.77;;;3.73;;
7045;SDS011;3564;53.326;10.356;2023-08-06T14:58:35;3.67;;;3.37;;
7045;SDS011;3564;53.326;10.356;2023-08-06T15:01:01;5.47;;;3.63;;
7045;SDS011;3564;53.326;10.356;2023-08-06T15:03:26;5.13;;;3.93;;
7045;SDS011;3564;53.326;10.356;2023-08-06T15:05:53;5.20;;;3.20;;
7045;SDS011;3564;53.326;10.356;2023-08-06T15:08:18;8.40;;;3.20;;
7045;SDS011;3564;53.326;10.356;2023-08-06T15:10:53;5.20;;;3.37;;